createdAt,value
2023-05-19T00:00:19.498Z,28.3657
2023-05-19T00:01:31.397Z,27.9726
2023-05-19T00:02:43.163Z,29.4473
2023-05-19T00:03:56.562Z,25.5319
2023-05-19T00:04:58.483Z,26.6940
2023-05-19T00:06:01.036Z,27.3542
2023-05-19T00:07:03.067Z,27.0848
2023-05-19T00:08:04.392Z,28.9579
2023-05-19T00:09:08.015Z,24.9143
2023-05-19T00:10:09.208Z,26.3766
2023-05-19T00:11:21.224Z,26.1177
2023-05-19T00:12:23.506Z,25.8441
2023-05-19T00:13:31.032Z,87.5680
2023-05-19T00:14:34.014Z,29.5384
2023-05-19T00:15:36.516Z,27.7437
2023-05-19T00:16:37.625Z,26.8777
2023-05-19T00:17:49.564Z,29.1106
2023-05-19T00:19:01.517Z,26.4711
2023-05-19T00:20:13.785Z,27.3048
2023-05-19T00:21:16.756Z,27.0023
2023-05-19T00:22:18.094Z,27.6954
2023-05-19T00:23:30.028Z,27.8591
2023-05-19T00:24:33.668Z,27.6520
2023-05-19T00:25:34.682Z,27.2118
2023-05-19T00:26:46.779Z,24.6670
2023-05-19T00:27:49.488Z,27.9719
2023-05-19T00:28:51.405Z,28.8487
2023-05-19T00:29:54.512Z,28.6052
2023-05-19T00:30:56.416Z,24.6200
2023-05-19T00:32:00.194Z,26.2154
2023-05-19T00:33:00.753Z,24.5529
2023-05-19T00:34:12.570Z,26.4808
2023-05-19T00:35:24.620Z,27.8232
2023-05-19T00:36:36.526Z,26.2481
2023-05-19T00:37:43.606Z,27.3760
2023-05-19T00:38:55.565Z,26.9563
2023-05-19T00:40:07.455Z,26.9384
2023-05-19T00:41:19.456Z,25.4961
2023-05-19T00:42:31.281Z,25.8366
2023-05-19T00:43:43.262Z,27.7903
2023-05-19T00:44:54.336Z,26.2969
2023-05-19T00:46:02.331Z,28.5086
2023-05-19T00:47:01.257Z,25.2176
2023-05-19T00:48:06.987Z,27.3148
2023-05-19T00:49:19.681Z,26.9739
2023-05-19T00:50:21.216Z,27.9188
2023-05-19T00:51:33.290Z,28.2958
2023-05-19T00:52:45.477Z,24.3890
2023-05-19T00:53:47.459Z,27.1813
2023-05-19T00:55:00.498Z,28.1998
2023-05-19T00:56:01.850Z,27.7931
2023-05-19T00:57:03.962Z,27.6784
2023-05-19T00:58:17.049Z,25.8039
2023-05-19T00:59:19.259Z,27.1164
2023-05-19T01:00:20.652Z,27.5849
2023-05-19T01:01:34.056Z,24.6035
2023-05-19T01:02:35.213Z,25.5113
2023-05-19T01:03:37.434Z,25.8458
2023-05-19T01:04:39.785Z,27.7247
2023-05-19T01:05:42.066Z,27.6323
2023-05-19T01:06:55.104Z,27.2661
2023-05-19T01:07:57.167Z,25.8454
2023-05-19T01:08:59.477Z,25.3449
2023-05-19T01:10:00.998Z,27.2020
2023-05-19T01:11:04.358Z,26.5138
2023-05-19T01:12:11.677Z,27.4117
2023-05-19T01:13:14.673Z,25.3920
2023-05-19T01:14:16.126Z,26.5288
2023-05-19T01:15:17.371Z,28.8124
2023-05-19T01:16:29.505Z,27.3509
2023-05-19T01:17:31.635Z,25.4932
2023-05-19T01:18:44.590Z,27.0740
2023-05-19T01:19:46.038Z,25.6742
2023-05-19T01:20:48.219Z,23.7979
2023-05-19T01:21:50.663Z,26.5866
2023-05-19T01:22:52.817Z,25.8244
2023-05-19T01:24:05.784Z,25.3506
2023-05-19T01:25:07.208Z,25.4306
2023-05-19T01:26:20.084Z,24.4081
2023-05-19T01:27:26.313Z,24.9682
2023-05-19T01:28:29.870Z,27.4931
2023-05-19T01:29:32.071Z,24.4561
2023-05-19T01:30:34.691Z,24.3483
2023-05-19T01:31:35.771Z,25.3939
2023-05-19T01:32:37.893Z,26.9948
2023-05-19T01:33:49.821Z,22.8757
2023-05-19T01:34:52.156Z,25.0675
2023-05-19T01:36:04.369Z,27.9661
2023-05-19T01:37:07.867Z,26.6112
2023-05-19T01:38:08.761Z,25.4299
2023-05-19T01:39:20.881Z,26.0259
2023-05-19T01:40:24.165Z,23.2610
2023-05-19T01:41:26.440Z,59.4313
2023-05-19T01:42:27.838Z,26.7114
2023-05-19T01:43:31.779Z,26.7264
2023-05-19T01:44:33.570Z,25.5729
2023-05-19T01:45:34.814Z,24.7709
2023-05-19T01:46:38.164Z,26.0101
2023-05-19T01:47:40.586Z,26.6611
2023-05-19T01:48:41.676Z,25.7309
2023-05-19T01:49:53.767Z,24.6351
2023-05-19T01:50:55.973Z,25.7134
2023-05-19T01:52:07.922Z,24.1529
2023-05-19T01:53:19.968Z,25.9077
2023-05-19T01:54:23.062Z,25.3046
2023-05-19T01:55:25.648Z,24.3122
2023-05-19T01:56:26.824Z,24.9487
2023-05-19T01:57:29.163Z,24.5070
2023-05-19T01:58:41.135Z,24.5934
2023-05-19T01:59:53.190Z,24.9524
2023-05-19T02:00:55.494Z,22.4407
2023-05-19T02:01:57.719Z,23.3870
2023-05-19T02:03:00.145Z,24.7604
2023-05-19T02:04:02.657Z,24.7503
2023-05-19T02:05:04.971Z,25.6292
2023-05-19T02:06:07.088Z,21.6198
2023-05-19T02:07:09.496Z,23.1743
2023-05-19T02:08:11.705Z,25.1664
2023-05-19T02:09:23.699Z,23.4682
2023-05-19T02:10:35.685Z,24.6986
2023-05-19T02:11:38.010Z,26.9352
2023-05-19T02:12:40.264Z,25.0556
2023-05-19T02:13:52.161Z,24.1888
2023-05-19T02:15:04.095Z,25.7935
2023-05-19T02:16:15.988Z,24.8450
2023-05-19T02:17:27.968Z,21.7085
2023-05-19T02:18:39.871Z,24.2346
2023-05-19T02:19:51.762Z,25.4879
2023-05-19T02:21:04.502Z,24.6492
2023-05-19T02:22:06.071Z,25.1757
2023-05-19T02:23:19.330Z,25.3604
2023-05-19T02:24:20.389Z,26.4001
2023-05-19T02:25:22.613Z,25.1195
2023-05-19T02:26:35.602Z,23.4466
2023-05-19T02:27:37.958Z,26.1262
2023-05-19T02:28:40.504Z,22.3436
2023-05-19T02:29:42.621Z,24.2393
2023-05-19T02:30:45.098Z,23.8110
2023-05-19T02:31:46.232Z,24.0366
2023-05-19T02:32:59.133Z,24.1267
2023-05-19T02:34:00.477Z,24.4250
2023-05-19T02:35:13.385Z,24.8932
2023-05-19T02:36:14.737Z,25.1453
2023-05-19T02:37:26.807Z,26.4464
2023-05-19T02:38:29.045Z,26.3625
2023-05-19T02:39:41.178Z,23.6256
2023-05-19T02:40:43.348Z,22.7455
2023-05-19T02:41:55.336Z,21.8399
2023-05-19T02:42:58.255Z,23.9728
2023-05-19T02:44:01.115Z,22.2412
2023-05-19T02:45:02.319Z,24.0866
2023-05-19T02:46:14.357Z,25.7062
2023-05-19T02:47:26.403Z,24.9083
2023-05-19T02:48:28.436Z,23.8751
2023-05-19T02:49:41.555Z,24.5530
2023-05-19T02:50:42.645Z,25.7489
2023-05-19T02:51:45.034Z,25.4493
2023-05-19T02:52:56.953Z,23.4502
2023-05-19T02:53:59.772Z,25.1816
2023-05-19T02:55:01.563Z,23.9075
2023-05-19T02:56:13.587Z,23.1122
2023-05-19T02:57:17.106Z,25.0958
2023-05-19T02:58:18.698Z,21.9194
2023-05-19T02:59:20.547Z,22.2825
2023-05-19T03:00:32.703Z,22.1761
2023-05-19T03:01:35.303Z,23.1766
2023-05-19T03:02:37.252Z,24.9923
2023-05-19T03:03:39.582Z,25.0719
2023-05-19T03:04:47.266Z,24.6137
2023-05-19T03:05:49.825Z,22.7068
2023-05-19T03:06:51.371Z,25.6336
2023-05-19T03:07:54.681Z,23.8269
2023-05-19T03:08:55.929Z,24.8036
2023-05-19T03:10:07.929Z,24.3456
2023-05-19T03:11:20.657Z,23.8104
2023-05-19T03:12:22.122Z,23.9078
2023-05-19T03:13:35.347Z,24.1835
2023-05-19T03:14:41.213Z,22.8937
2023-05-19T03:15:54.518Z,23.8429
2023-05-19T03:16:57.322Z,22.4464
2023-05-19T03:18:02.862Z,22.4360
2023-05-19T03:19:05.034Z,24.7347
2023-05-19T03:20:07.354Z,26.0006
2023-05-19T03:21:09.700Z,23.7793
2023-05-19T03:22:11.952Z,23.2056
2023-05-19T03:23:24.056Z,23.6202
2023-05-19T03:24:26.491Z,24.8167
2023-05-19T03:25:28.872Z,25.0161
2023-05-19T03:26:30.873Z,23.2479
2023-05-19T03:27:42.835Z,23.8130
2023-05-19T03:28:56.611Z,26.0289
2023-05-19T03:29:57.080Z,23.6731
2023-05-19T03:31:09.816Z,22.2820
2023-05-19T03:32:11.363Z,25.1811
2023-05-19T03:33:25.364Z,25.0017
2023-05-19T03:34:25.594Z,24.4083
2023-05-19T03:35:37.535Z,24.6557
2023-05-19T03:36:49.558Z,26.0613
2023-05-19T03:37:51.853Z,22.9417
2023-05-19T03:39:04.581Z,23.6551
2023-05-19T03:40:07.564Z,24.5305
2023-05-19T03:41:09.369Z,22.3106
2023-05-19T03:42:15.512Z,24.7465
2023-05-19T03:43:27.595Z,21.7576
2023-05-19T03:44:34.590Z,23.8640
2023-05-19T03:45:46.706Z,22.8626
2023-05-19T03:46:49.017Z,24.4129
2023-05-19T03:47:51.390Z,21.8366
2023-05-19T03:48:53.537Z,24.5108
2023-05-19T03:50:00.689Z,23.5072
2023-05-19T03:51:07.902Z,24.3119
2023-05-19T03:52:11.254Z,24.8977
2023-05-19T03:53:12.577Z,25.4076
2023-05-19T03:54:15.907Z,27.8637
2023-05-19T03:55:18.292Z,25.1898
2023-05-19T03:56:19.474Z,24.0986
2023-05-19T03:57:26.571Z,24.4531
2023-05-19T03:58:38.802Z,24.3429
2023-05-19T03:59:41.922Z,25.5519
2023-05-19T04:00:43.441Z,26.2643
2023-05-19T04:01:45.815Z,26.2407
2023-05-19T04:02:48.016Z,23.9729
2023-05-19T04:03:50.303Z,26.0898
2023-05-19T04:04:52.801Z,23.6472
2023-05-19T04:05:54.889Z,27.2491
2023-05-19T04:07:07.375Z,25.7093
2023-05-19T04:08:10.500Z,25.7164
2023-05-19T04:09:11.525Z,26.2811
2023-05-19T04:10:24.754Z,28.3274
2023-05-19T04:11:25.849Z,27.1876
2023-05-19T04:12:28.136Z,27.1647
2023-05-19T04:13:40.112Z,25.1575
2023-05-19T04:14:42.453Z,27.0523
2023-05-19T04:15:46.091Z,25.1430
2023-05-19T04:16:47.950Z,25.7994
2023-05-19T04:17:50.465Z,25.5676
2023-05-19T04:18:51.861Z,26.2781
2023-05-19T04:19:54.951Z,27.9271
2023-05-19T04:20:57.674Z,26.4845
2023-05-19T04:21:58.813Z,27.3113
2023-05-19T04:23:01.119Z,28.8111
2023-05-19T04:24:04.869Z,26.1455
2023-05-19T04:25:05.838Z,26.0466
2023-05-19T04:26:08.243Z,27.0856
2023-05-19T04:27:10.528Z,25.5278
2023-05-19T04:28:13.914Z,27.5264
2023-05-19T04:29:16.289Z,25.3784
2023-05-19T04:30:18.666Z,27.8719
2023-05-19T04:31:20.321Z,27.4404
2023-05-19T04:32:23.141Z,27.0942
2023-05-19T04:33:25.796Z,89.6571
2023-05-19T04:34:31.647Z,26.6293
2023-05-19T04:35:38.962Z,29.7746
2023-05-19T04:36:41.177Z,27.7458
2023-05-19T04:37:43.522Z,26.9905
2023-05-19T04:38:45.813Z,26.8372
2023-05-19T04:39:48.581Z,26.8938
2023-05-19T04:40:51.797Z,27.8532
2023-05-19T04:41:54.099Z,29.3041
2023-05-19T04:42:55.281Z,29.4856
2023-05-19T04:43:58.749Z,28.4938
2023-05-19T04:45:01.003Z,26.5627
2023-05-19T04:46:02.292Z,29.5976
2023-05-19T04:47:06.376Z,28.7414
2023-05-19T04:48:16.962Z,27.3738
2023-05-19T04:49:18.994Z,26.5644
2023-05-19T04:50:21.316Z,26.2077
2023-05-19T04:51:23.701Z,28.8089
2023-05-19T04:52:27.473Z,30.5169
2023-05-19T04:53:28.432Z,29.0019
2023-05-19T04:54:31.025Z,25.9322
2023-05-19T04:55:33.026Z,30.8689
2023-05-19T04:56:35.138Z,26.3520
2023-05-19T04:57:37.390Z,28.8869
2023-05-19T04:58:49.059Z,28.6945
2023-05-19T05:00:01.248Z,30.6532
2023-05-19T05:01:04.513Z,27.3286
2023-05-19T05:02:05.759Z,24.6307
2023-05-19T05:03:18.576Z,27.2477
2023-05-19T05:04:21.005Z,28.0714
2023-05-19T05:05:22.424Z,30.0172
2023-05-19T05:06:24.697Z,28.1260
2023-05-19T05:07:36.523Z,27.0948
2023-05-19T05:08:48.482Z,28.8532
2023-05-19T05:10:00.751Z,27.6067
2023-05-19T05:11:03.908Z,28.2050
2023-05-19T05:12:05.946Z,30.0219
2023-05-19T05:13:07.955Z,27.9839
2023-05-19T05:14:10.683Z,27.3083
2023-05-19T05:15:12.958Z,31.3327
2023-05-19T05:16:15.034Z,27.6213
2023-05-19T05:17:16.865Z,27.4522
2023-05-19T05:18:19.021Z,28.9922
2023-05-19T05:19:31.434Z,28.5832
2023-05-19T05:20:34.416Z,26.3962
2023-05-19T05:21:36.090Z,28.2582
2023-05-19T05:22:38.143Z,27.4108
2023-05-19T05:23:51.043Z,28.7432
2023-05-19T05:24:52.216Z,28.9387
2023-05-19T05:26:03.967Z,28.7002
2023-05-19T05:27:15.854Z,29.4451
2023-05-19T05:28:28.007Z,28.6271
2023-05-19T05:29:40.838Z,29.0143
2023-05-19T05:30:43.192Z,28.9374
2023-05-19T05:31:44.628Z,30.3476
2023-05-19T05:32:56.480Z,27.9226
2023-05-19T05:34:08.186Z,26.0154
2023-05-19T05:35:20.273Z,27.7716
2023-05-19T05:36:32.054Z,30.9297
2023-05-19T05:37:43.942Z,29.1030
2023-05-19T05:38:56.199Z,30.2779
2023-05-19T05:40:07.804Z,27.8305
2023-05-19T05:41:19.966Z,32.1433
2023-05-19T05:42:32.773Z,33.3112
2023-05-19T05:43:34.744Z,31.9905
2023-05-19T05:44:41.138Z,30.7965
2023-05-19T05:45:53.132Z,31.3214
2023-05-19T05:47:05.025Z,32.8775
2023-05-19T05:48:08.590Z,29.7098
2023-05-19T05:49:14.677Z,30.9477
2023-05-19T05:50:26.369Z,29.8111
2023-05-19T05:51:39.418Z,29.3019
2023-05-19T05:52:40.649Z,29.5599
2023-05-19T05:53:43.205Z,31.0897
2023-05-19T05:54:55.672Z,31.1643
2023-05-19T05:55:57.226Z,35.0746
2023-05-19T05:57:10.935Z,31.6588
2023-05-19T05:58:12.564Z,31.5075
2023-05-19T05:59:14.051Z,31.0167
2023-05-19T06:00:27.155Z,32.2864
2023-05-19T06:01:28.109Z,30.4496
2023-05-19T06:02:40.154Z,30.8125
2023-05-19T06:03:53.182Z,32.1562
2023-05-19T06:04:54.340Z,29.7164
2023-05-19T06:06:06.502Z,31.9533
2023-05-19T06:07:18.271Z,31.9715
2023-05-19T06:08:30.114Z,31.0437
2023-05-19T06:09:43.165Z,34.7395
2023-05-19T06:10:47.082Z,34.7785
2023-05-19T06:11:47.835Z,34.8097
2023-05-19T06:12:49.236Z,31.0104
2023-05-19T06:13:51.477Z,33.6879
2023-05-19T06:15:04.425Z,31.0495
2023-05-19T06:16:05.702Z,32.2984
2023-05-19T06:17:18.635Z,34.3660
2023-05-19T06:18:20.383Z,34.7757
2023-05-19T06:19:24.577Z,33.7643
2023-05-19T06:20:25.532Z,37.6004
2023-05-19T06:21:26.872Z,34.9193
2023-05-19T06:22:38.811Z,33.6007
2023-05-19T06:23:51.134Z,31.6338
2023-05-19T06:24:53.053Z,35.8947
2023-05-19T06:26:05.969Z,34.6127
2023-05-19T06:27:07.422Z,33.2711
2023-05-19T06:28:19.812Z,33.3559
2023-05-19T06:29:26.614Z,31.7337
2023-05-19T06:30:39.465Z,31.8530
2023-05-19T06:31:41.655Z,29.1992
2023-05-19T06:32:43.974Z,27.2466
2023-05-19T06:33:46.377Z,31.7592
2023-05-19T06:34:47.710Z,30.1185
2023-05-19T06:35:59.598Z,35.3155
2023-05-19T06:37:01.851Z,35.2225
2023-05-19T06:38:14.525Z,30.5858
2023-05-19T06:39:16.093Z,28.2120
2023-05-19T06:40:27.998Z,33.2004
2023-05-19T06:41:40.639Z,29.0941
2023-05-19T06:42:42.633Z,29.9829
2023-05-19T06:43:44.700Z,27.3068
2023-05-19T06:44:57.435Z,29.8035
2023-05-19T06:45:59.582Z,32.9629
2023-05-19T06:47:02.496Z,35.6129
2023-05-19T06:48:03.576Z,32.2374
2023-05-19T06:49:25.177Z,33.2979
2023-05-19T06:50:32.312Z,32.7763
2023-05-19T06:51:29.859Z,36.2870
2023-05-19T06:52:41.573Z,33.2990
2023-05-19T06:53:54.601Z,34.8021
2023-05-19T06:54:57.026Z,32.4867
2023-05-19T06:55:59.835Z,32.8188
2023-05-19T06:57:00.513Z,36.1330
2023-05-19T06:58:14.285Z,32.8207
2023-05-19T06:59:14.834Z,35.7002
2023-05-19T07:00:26.836Z,35.4567
2023-05-19T07:01:39.827Z,35.4064
2023-05-19T07:02:42.014Z,35.8479
2023-05-19T07:03:43.498Z,37.0773
2023-05-19T07:04:55.258Z,34.5042
2023-05-19T07:05:57.599Z,35.1208
2023-05-19T07:07:09.444Z,34.5539
2023-05-19T07:08:22.457Z,31.8392
2023-05-19T07:09:23.744Z,33.0100
2023-05-19T07:10:35.874Z,34.7692
2023-05-19T07:11:47.608Z,37.2703
2023-05-19T07:12:59.693Z,33.4961
2023-05-19T07:14:12.540Z,32.9675
2023-05-19T07:15:13.773Z,33.7931
2023-05-19T07:16:25.794Z,36.2117
2023-05-19T07:17:37.622Z,34.4416
2023-05-19T07:18:51.186Z,34.6524
2023-05-19T07:19:52.446Z,32.8646
2023-05-19T07:20:55.187Z,35.1596
2023-05-19T07:21:56.484Z,36.2004
2023-05-19T07:23:08.576Z,35.9391
2023-05-19T07:24:20.358Z,33.8406
2023-05-19T07:25:33.550Z,33.8115
2023-05-19T07:26:34.807Z,34.5356
2023-05-19T07:27:47.529Z,31.6658
2023-05-19T07:28:49.902Z,35.6386
2023-05-19T07:29:52.323Z,35.9186
2023-05-19T07:30:53.594Z,36.1709
2023-05-19T07:32:06.784Z,37.0443
2023-05-19T07:33:08.190Z,35.9772
2023-05-19T07:34:20.637Z,35.4924
2023-05-19T07:35:22.450Z,35.8061
2023-05-19T07:36:25.629Z,30.9956
2023-05-19T07:37:27.821Z,31.0878
2023-05-19T07:38:29.127Z,33.1678
2023-05-19T07:39:41.120Z,35.7389
2023-05-19T07:40:53.118Z,36.7572
2023-05-19T07:42:04.800Z,35.9586
2023-05-19T07:43:16.899Z,35.0938
2023-05-19T07:44:29.561Z,33.6881
2023-05-19T07:45:33.117Z,35.3553
2023-05-19T07:46:34.306Z,33.7616
2023-05-19T07:47:35.711Z,37.6986
2023-05-19T07:48:49.688Z,34.2434
2023-05-19T07:49:51.994Z,38.9921
2023-05-19T07:50:53.361Z,39.1461
2023-05-19T07:51:54.966Z,36.2991
2023-05-19T07:53:07.706Z,39.4776
2023-05-19T07:54:09.938Z,36.1460
2023-05-19T07:55:12.018Z,39.3360
2023-05-19T07:56:13.680Z,37.3703
2023-05-19T07:57:16.457Z,35.1028
2023-05-19T07:58:19.156Z,37.8988
2023-05-19T07:59:20.546Z,38.5108
2023-05-19T08:00:33.256Z,38.5865
2023-05-19T08:01:35.787Z,36.8534
2023-05-19T08:02:38.118Z,38.6133
2023-05-19T08:03:39.532Z,39.2823
2023-05-19T08:04:42.873Z,36.1258
2023-05-19T08:05:45.551Z,38.7056
2023-05-19T08:06:52.015Z,38.4277
2023-05-19T08:07:53.601Z,40.7886
2023-05-19T08:09:05.518Z,41.2152
2023-05-19T08:10:17.466Z,42.0218
2023-05-19T08:11:29.418Z,38.3563
2023-05-19T08:12:42.206Z,39.1802
2023-05-19T08:13:43.982Z,38.9631
2023-05-19T08:14:55.613Z,42.4890
2023-05-19T08:16:07.778Z,36.2176
2023-05-19T08:17:20.189Z,40.3936
2023-05-19T08:18:21.924Z,38.1641
2023-05-19T08:19:24.897Z,40.1359
2023-05-19T08:20:26.781Z,44.6345
2023-05-19T08:21:39.385Z,43.7127
2023-05-19T08:22:40.695Z,44.1952
2023-05-19T08:23:52.684Z,44.0896
2023-05-19T08:25:04.554Z,42.6727
2023-05-19T08:26:17.613Z,43.2204
2023-05-19T08:27:25.117Z,40.9278
2023-05-19T08:28:26.824Z,45.2039
2023-05-19T08:29:28.289Z,40.9539
2023-05-19T08:30:40.297Z,43.4899
2023-05-19T08:31:52.229Z,40.5771
2023-05-19T08:33:04.093Z,42.4256
2023-05-19T08:34:17.087Z,40.8132
2023-05-19T08:35:23.106Z,42.2488
2023-05-19T08:36:36.184Z,43.6453
2023-05-19T08:37:38.395Z,38.8729
2023-05-19T08:38:39.798Z,40.7774
2023-05-19T08:39:52.699Z,41.5191
2023-05-19T08:40:54.049Z,42.6043
2023-05-19T08:42:05.910Z,43.0408
2023-05-19T08:43:17.862Z,48.2253
2023-05-19T08:44:30.948Z,51.2752
2023-05-19T08:45:33.260Z,49.2231
2023-05-19T08:46:34.617Z,47.9216
2023-05-19T08:47:46.477Z,45.7464
2023-05-19T08:48:59.704Z,40.5757
2023-05-19T08:50:02.022Z,39.7810
2023-05-19T08:51:12.449Z,45.3323
2023-05-19T08:52:19.559Z,44.0207
2023-05-19T08:53:32.496Z,43.8269
2023-05-19T08:54:29.734Z,41.2201
2023-05-19T08:55:31.994Z,40.1704
2023-05-19T08:56:35.052Z,40.4365
2023-05-19T08:57:36.487Z,44.0593
2023-05-19T08:58:48.754Z,43.4871
2023-05-19T08:59:50.512Z,48.2425
2023-05-19T09:00:53.999Z,45.3441
2023-05-19T09:01:56.109Z,45.2856
2023-05-19T09:03:06.066Z,40.6483
2023-05-19T09:04:05.876Z,40.2431
2023-05-19T09:05:09.167Z,46.9687
2023-05-19T09:06:09.551Z,44.4614
2023-05-19T09:07:21.368Z,44.6351
2023-05-19T09:08:33.550Z,46.5283
2023-05-19T09:09:46.007Z,46.8825
2023-05-19T09:10:48.735Z,44.7843
2023-05-19T09:11:50.928Z,51.4972
2023-05-19T09:12:52.112Z,48.0001
2023-05-19T09:14:03.987Z,45.3089
2023-05-19T09:17:37.038Z,48.7006
2023-05-19T09:17:37.038Z,46.7770
2023-05-19T09:18:37.368Z,45.9743
2023-05-19T09:19:49.343Z,46.2441
2023-05-19T09:21:01.215Z,47.3154
2023-05-19T09:22:04.046Z,42.0352
2023-05-19T09:23:05.973Z,49.0774
2023-05-19T09:24:18.865Z,47.8834
2023-05-19T09:25:20.276Z,46.8300
2023-05-19T09:26:32.169Z,47.0066
2023-05-19T09:27:44.026Z,48.0359
2023-05-19T09:28:57.361Z,50.5861
2023-05-19T09:29:58.832Z,51.7896
2023-05-19T09:31:01.389Z,48.3187
2023-05-19T09:32:04.212Z,41.7569
2023-05-19T09:33:05.345Z,46.3075
2023-05-19T09:34:17.241Z,46.3928
2023-05-19T09:35:20.612Z,51.2353
2023-05-19T09:36:26.747Z,49.2160
2023-05-19T09:37:39.695Z,49.9303
2023-05-19T09:38:41.289Z,48.3809
2023-05-19T09:39:44.910Z,46.5124
2023-05-19T09:40:46.364Z,49.9719
2023-05-19T09:41:48.909Z,47.9772
2023-05-19T09:42:50.320Z,50.0318
2023-05-19T09:43:52.856Z,50.8418
2023-05-19T09:44:56.398Z,49.4223
2023-05-19T09:45:59.465Z,51.4808
2023-05-19T09:47:00.612Z,48.9514
2023-05-19T09:48:08.020Z,49.3325
2023-05-19T09:49:09.358Z,50.1462
2023-05-19T09:50:22.130Z,48.6715
2023-05-19T09:51:24.461Z,49.0977
2023-05-19T09:52:25.822Z,49.3122
2023-05-19T09:53:28.240Z,46.8596
2023-05-19T09:54:40.605Z,42.1919
2023-05-19T09:55:42.446Z,48.3074
2023-05-19T09:56:54.746Z,48.2915
2023-05-19T09:57:57.062Z,48.6527
2023-05-19T09:58:58.986Z,43.3115
2023-05-19T10:00:12.176Z,48.1351
2023-05-19T10:01:13.263Z,49.8349
2023-05-19T10:02:25.073Z,49.0741
2023-05-19T10:03:37.852Z,47.0036
2023-05-19T10:04:39.545Z,46.7211
2023-05-19T10:05:51.302Z,44.3965
2023-05-19T10:07:04.239Z,43.9009
2023-05-19T10:08:05.528Z,46.2284
2023-05-19T10:09:17.414Z,45.2555
2023-05-19T10:10:29.646Z,48.6118
2023-05-19T10:11:41.338Z,48.0241
2023-05-19T10:12:53.490Z,46.2467
2023-05-19T10:14:05.164Z,48.9820
2023-05-19T10:15:17.668Z,49.5441
2023-05-19T10:16:20.311Z,44.7469
2023-05-19T10:17:21.822Z,46.0541
2023-05-19T10:18:33.882Z,53.0604
2023-05-19T10:19:46.080Z,48.5868
2023-05-19T10:20:48.153Z,47.1177
2023-05-19T10:22:00.070Z,48.6292
2023-05-19T10:23:12.053Z,48.2883
2023-05-19T10:24:23.745Z,53.1023
2023-05-19T10:25:36.248Z,47.3050
2023-05-19T10:26:38.120Z,46.3286
2023-05-19T10:27:40.349Z,51.1911
2023-05-19T10:28:52.166Z,45.8922
2023-05-19T10:29:55.872Z,51.0198
2023-05-19T10:30:58.020Z,44.8353
2023-05-19T10:31:59.513Z,41.2609
2023-05-19T10:33:01.898Z,44.4323
2023-05-19T10:34:03.937Z,48.8610
2023-05-19T10:35:07.317Z,49.0060
2023-05-19T10:36:09.155Z,46.3662
2023-05-19T10:37:10.911Z,49.8113
2023-05-19T10:38:22.781Z,49.9211
2023-05-19T10:39:35.770Z,46.0532
2023-05-19T10:40:37.058Z,43.8858
2023-05-19T10:41:48.903Z,50.1556
2023-05-19T10:43:00.839Z,48.1704
2023-05-19T10:44:14.579Z,48.0710
2023-05-19T10:45:15.257Z,51.2150
2023-05-19T10:46:28.262Z,46.8507
2023-05-19T10:47:29.401Z,50.3313
2023-05-19T10:48:41.622Z,49.2646
2023-05-19T10:49:53.330Z,51.0751
2023-05-19T10:51:06.562Z,47.9627
2023-05-19T10:52:07.867Z,49.1798
2023-05-19T10:53:20.461Z,44.3953
2023-05-19T10:54:31.235Z,46.4308
2023-05-19T10:55:29.873Z,50.7259
2023-05-19T10:56:36.871Z,47.8769
2023-05-19T10:57:38.334Z,50.9085
2023-05-19T10:58:50.334Z,49.2644
2023-05-19T10:59:52.964Z,43.6462
2023-05-19T11:00:55.747Z,45.2794
2023-05-19T11:01:57.363Z,40.8832
2023-05-19T11:03:10.201Z,47.6071
2023-05-19T11:04:11.716Z,49.1853
2023-05-19T11:05:25.095Z,49.6140
2023-05-19T11:06:25.863Z,50.8548
2023-05-19T11:07:38.682Z,50.5728
2023-05-19T11:08:40.048Z,51.3546
2023-05-19T11:09:52.343Z,49.0080
2023-05-19T11:10:54.294Z,52.7199
2023-05-19T11:12:06.713Z,49.7641
2023-05-19T11:13:09.162Z,49.8595
2023-05-19T11:14:11.303Z,51.4447
2023-05-19T11:15:23.647Z,50.3345
2023-05-19T11:16:25.318Z,48.4186
2023-05-19T11:17:28.167Z,44.0852
2023-05-19T11:18:30.098Z,47.5995
2023-05-19T11:19:43.696Z,49.1369
2023-05-19T11:20:44.849Z,52.0562
2023-05-19T11:21:47.501Z,49.1141
2023-05-19T11:22:48.956Z,50.5053
2023-05-19T11:24:01.014Z,51.0616
2023-05-19T11:25:14.037Z,55.5305
2023-05-19T11:26:19.777Z,52.7807
2023-05-19T11:27:32.938Z,55.1460
2023-05-19T11:28:34.061Z,54.6921
2023-05-19T11:29:46.045Z,49.9926
2023-05-19T11:30:58.373Z,50.7187
2023-05-19T11:32:00.548Z,51.1708
2023-05-19T11:33:03.568Z,54.5295
2023-05-19T11:34:04.903Z,49.7960
2023-05-19T11:35:16.783Z,53.5701
2023-05-19T11:36:28.761Z,55.1389
2023-05-19T11:37:40.704Z,49.6817
2023-05-19T11:38:52.499Z,55.6688
2023-05-19T11:40:04.651Z,58.3021
2023-05-19T11:41:07.874Z,50.5045
2023-05-19T11:42:09.085Z,54.4090
2023-05-19T11:43:11.452Z,55.3210
2023-05-19T11:44:24.596Z,57.9523
2023-05-19T11:45:25.979Z,55.4072
2023-05-19T11:46:38.206Z,53.7438
2023-05-19T11:47:56.487Z,46.8333
2023-05-19T11:48:47.882Z,48.9283
2023-05-19T11:49:50.692Z,49.3522
2023-05-19T11:50:52.832Z,45.8376
2023-05-19T11:51:54.154Z,48.5231
2023-05-19T11:53:06.701Z,53.4463
2023-05-19T11:54:09.592Z,49.6614
2023-05-19T11:55:10.678Z,48.8085
2023-05-19T11:56:23.705Z,53.5638
2023-05-19T11:57:29.804Z,45.5457
2023-05-19T11:58:43.305Z,47.8319
2023-05-19T11:59:44.318Z,45.1221
2023-05-19T12:00:48.225Z,52.3941
2023-05-19T12:01:50.620Z,55.7848
2023-05-19T12:02:55.952Z,54.4660
2023-05-19T12:04:09.329Z,52.4660
2023-05-19T12:05:10.572Z,53.6090
2023-05-19T12:06:13.132Z,53.3471
2023-05-19T12:07:16.121Z,53.3070
2023-05-19T12:08:17.058Z,50.9776
2023-05-19T12:09:30.095Z,51.5481
2023-05-19T12:10:31.303Z,51.4769
2023-05-19T12:11:43.553Z,50.9952
2023-05-19T12:12:45.592Z,49.3669
2023-05-19T12:13:58.547Z,48.5239
2023-05-19T12:15:00.931Z,50.3852
2023-05-19T12:16:02.984Z,47.2917
2023-05-19T12:17:04.474Z,51.9143
2023-05-19T12:18:17.700Z,50.1815
2023-05-19T12:19:18.764Z,46.1550
2023-05-19T12:20:30.691Z,44.0223
2023-05-19T12:21:42.788Z,47.6807
2023-05-19T12:22:45.165Z,47.4271
2023-05-19T12:23:48.328Z,44.3563
2023-05-19T12:24:49.778Z,48.2340
2023-05-19T12:26:02.336Z,43.9751
2023-05-19T12:27:04.838Z,50.3704
2023-05-19T12:28:07.806Z,47.7501
2023-05-19T12:29:08.516Z,48.0617
2023-05-19T12:30:21.574Z,46.1534
2023-05-19T12:31:22.799Z,45.9837
2023-05-19T12:32:34.847Z,41.4645
2023-05-19T12:33:47.409Z,39.9462
2023-05-19T12:34:49.403Z,46.2359
2023-05-19T12:36:01.594Z,46.5247
2023-05-19T12:37:03.983Z,45.9497
2023-05-19T12:38:06.857Z,42.8612
2023-05-19T12:39:08.057Z,39.5599
2023-05-19T12:40:20.731Z,44.7551
2023-05-19T12:41:22.116Z,42.0990
2023-05-19T12:42:35.503Z,48.9428
2023-05-19T12:43:36.570Z,47.1854
2023-05-19T12:44:50.274Z,41.5387
2023-05-19T12:45:51.991Z,46.4808
2023-05-19T12:46:53.035Z,47.3822
2023-05-19T12:48:05.637Z,47.2457
2023-05-19T12:49:07.403Z,40.7940
2023-05-19T12:50:21.269Z,44.4325
2023-05-19T12:51:22.701Z,45.8843
2023-05-19T12:52:24.133Z,43.9759
2023-05-19T12:53:35.856Z,44.7239
2023-05-19T12:54:47.907Z,39.5766
2023-05-19T12:55:59.900Z,47.2052
2023-05-19T12:57:21.128Z,50.6769
2023-05-19T12:58:18.890Z,49.6132
2023-05-19T12:59:27.171Z,48.8242
2023-05-19T13:00:28.689Z,52.0360
2023-05-19T13:01:30.690Z,46.1049
2023-05-19T13:02:33.115Z,50.2867
2023-05-19T13:03:45.071Z,50.4976
2023-05-19T13:04:56.883Z,50.3365
2023-05-19T13:06:08.864Z,46.4650
2023-05-19T13:07:21.484Z,46.2528
2023-05-19T13:08:23.216Z,44.7850
2023-05-19T13:09:36.042Z,47.1446
2023-05-19T13:10:38.214Z,44.8477
2023-05-19T13:11:39.642Z,46.3338
2023-05-19T13:12:52.789Z,46.0579
2023-05-19T13:13:54.053Z,47.8567
2023-05-19T13:15:05.861Z,42.9711
2023-05-19T13:16:18.732Z,47.7322
2023-05-19T13:17:25.790Z,48.3368
2023-05-19T13:18:27.649Z,43.4647
2023-05-19T13:19:39.344Z,45.0556
2023-05-19T13:20:51.335Z,43.8876
2023-05-19T13:22:03.114Z,47.8815